Time,TemperatureF,DewpointF,PressureIn,WindDirection,WindDirectionDegrees,WindSpeedMPH,WindSpeedGustMPH,Humidity,HourlyPrecipIn,Conditions,Clouds,dailyrainin,SoftwareType,DateUTC
2013-01-01 00:02:00,22.5,17.5,30.17,NNW,334,4.0,6.0,81,0.00,,,0.00,Wunderground v.1.15,2013-01-01 06:02:00,
2013-01-01 00:07:00,22.4,17.5,30.17,North,5,5.0,6.0,81,0.00,,,0.00,Wunderground v.1.15,2013-01-01 06:07:00,
2013-01-01 00:13:00,22.4,17.2,30.17,NNW,341,5.0,7.0,80,0.00,,,0.00,Wunderground v.1.15,2013-01-01 06:13:00,
2013-01-01 00:19:00,22.4,16.6,30.17,NNW,345,6.0,6.0,78,0.00,,,0.00,Wunderground v.1.15,2013-01-01 06:19:00,
2013-01-01 00:25:00,22.2,15.2,30.17,NW,323,6.0,6.0,74,0.00,,,0.00,Wunderground v.1.15,2013-01-01 06:25:00,
2013-01-01 00:32:00,22.2,15.2,30.17,North,351,6.0,7.0,74,0.00,,,0.00,Wunderground v.1.15,2013-01-01 06:32:00,
2013-01-01 00:37:00,22.1,15.4,30.17,NNE,24,6.0,6.0,75,0.00,,,0.00,Wunderground v.1.15,2013-01-01 06:37:00,
2013-01-01 00:43:00,22.1,15.1,30.17,North,5,6.0,10.0,74,0.00,,,0.00,Wunderground v.1.15,2013-01-01 06:43:00,
2013-01-01 00:48:00,22.0,15.3,30.17,NNE,24,7.0,8.0,75,0.00,,,0.00,Wunderground v.1.15,2013-01-01 06:48:00,
2013-01-01 00:54:00,22.0,15.3,30.17,NNE,28,6.0,8.0,75,0.00,,,0.00,Wunderground v.1.15,2013-01-01 06:54:00,
2013-01-01 01:00:00,22.0,15.6,30.17,NNE,23,5.0,5.0,76,0.00,,,0.00,Wunderground v.1.15,2013-01-01 07:00:00,
2013-01-01 01:06:00,22.0,15.6,30.17,NNE,14,4.0,6.0,76,0.00,,,0.00,Wunderground v.1.15,2013-01-01 07:06:00,
2013-01-01 01:13:00,21.8,14.8,30.17,NNW,347,5.0,7.0,74,0.00,,,0.00,Wunderground v.1.15,2013-01-01 07:13:00,
2013-01-01 01:18:00,21.6,14.3,30.17,North,355,6.0,6.0,73,0.00,,,0.00,Wunderground v.1.15,2013-01-01 07:18:00,
2013-01-01 01:24:00,21.4,14.1,30.17,North,5,6.0,7.0,73,0.00,,,0.00,Wunderground v.1.15,2013-01-01 07:24:00,
2013-01-01 01:30:00,21.3,13.7,30.17,NNE,22,6.0,6.0,72,0.00,,,0.00,Wunderground v.1.15,2013-01-01 07:30:00,
2013-01-01 01:36:00,21.3,14.0,30.18,NNW,345,7.0,8.0,73,0.00,,,0.00,Wunderground v.1.15,2013-01-01 07:36:00,
2013-01-01 01:42:00,21.2,13.9,30.18,NNE,21,6.0,7.0,73,0.00,,,0.00,Wunderground v.1.15,2013-01-01 07:42:00,
2013-01-01 01:48:00,21.1,14.1,30.18,NNE,28,6.0,6.0,74,0.00,,,0.00,Wunderground v.1.15,2013-01-01 07:48:00,
2013-01-01 01:54:00,21.0,14.0,30.18,NNE,17,6.0,7.0,74,0.00,,,0.00,Wunderground v.1.15,2013-01-01 07:54:00,
2013-01-01 02:00:00,20.9,14.2,30.18,North,5,6.0,7.0,75,0.00,,,0.00,Wunderground v.1.15,2013-01-01 08:00:00,
2013-01-01 02:06:00,20.8,14.4,30.19,NNW,338,5.0,7.0,76,0.00,,,0.00,Wunderground v.1.15,2013-01-01 08:06:00,
2013-01-01 02:12:00,20.6,14.2,30.19,NNW,342,4.0,6.0,76,0.00,,,0.00,Wunderground v.1.15,2013-01-01 08:12:00,
2013-01-01 02:18:00,20.5,14.1,30.19,North,5,4.0,4.0,76,0.00,,,0.00,Wunderground v.1.15,2013-01-01 08:18:00,
2013-01-01 02:24:00,20.4,13.7,30.20,NNE,13,4.0,6.0,75,0.00,,,0.00,Wunderground v.1.15,2013-01-01 08:24:00,
2013-01-01 02:30:00,20.2,12.9,30.20,NNE,31,5.0,8.0,73,0.00,,,0.00,Wunderground v.1.15,2013-01-01 08:30:00,
2013-01-01 02:36:00,20.2,12.9,30.19,North,5,6.0,9.0,73,0.00,,,0.00,Wunderground v.1.15,2013-01-01 08:36:00,
2013-01-01 02:42:00,20.2,12.9,30.19,North,5,5.0,6.0,73,0.00,,,0.00,Wunderground v.1.15,2013-01-01 08:42:00,
2013-01-01 02:48:00,20.2,13.5,30.20,North,360,4.0,4.0,75,0.00,,,0.00,Wunderground v.1.15,2013-01-01 08:48:00,
2013-01-01 02:54:00,20.2,13.5,30.20,North,360,3.0,4.0,75,0.00,,,0.00,Wunderground v.1.15,2013-01-01 08:54:00,
2013-01-01 03:00:00,20.1,13.4,30.20,NNW,336,4.0,6.0,75,0.00,,,0.00,Wunderground v.1.15,2013-01-01 09:00:00,
2013-01-01 03:06:00,20.1,13.4,30.20,NNW,332,4.0,6.0,75,0.00,,,0.00,Wunderground v.1.15,2013-01-01 09:06:00,
2013-01-01 03:12:00,20.0,13.3,30.21,NNW,343,4.0,6.0,75,0.00,,,0.00,Wunderground v.1.15,2013-01-01 09:12:00,
2013-01-01 03:18:00,19.8,12.8,30.21,NNW,338,5.0,9.0,74,0.00,,,0.00,Wunderground v.1.15,2013-01-01 09:18:00,
2013-01-01 03:24:00,19.6,13.0,30.20,North,360,5.0,9.0,75,0.00,,,0.00,Wunderground v.1.15,2013-01-01 09:24:00,
2013-01-01 03:30:00,19.3,12.7,30.20,North,5,5.0,5.0,75,0.00,,,0.00,Wunderground v.1.15,2013-01-01 09:30:00,
2013-01-01 03:36:00,19.0,12.4,30.20,NNW,330,5.0,5.0,75,0.00,,,0.00,Wunderground v.1.15,2013-01-01 09:36:00,
2013-01-01 03:42:00,18.6,12.3,30.21,NNW,330,5.0,6.0,76,0.00,,,0.00,Wunderground v.1.15,2013-01-01 09:42:00,
2013-01-01 03:48:00,18.2,12.2,30.21,North,355,5.0,6.0,77,0.00,,,0.00,Wunderground v.1.15,2013-01-01 09:48:00,
2013-01-01 03:54:00,17.8,11.8,30.21,NNW,338,5.0,7.0,77,0.00,,,0.00,Wunderground v.1.15,2013-01-01 09:54:00,
2013-01-01 04:00:00,17.5,11.5,30.22,North,5,5.0,5.0,77,0.00,,,0.00,Wunderground v.1.15,2013-01-01 10:00:00,
2013-01-01 04:06:00,17.3,11.3,30.21,NNW,338,5.0,5.0,77,0.00,,,0.00,Wunderground v.1.15,2013-01-01 10:06:00,
2013-01-01 04:12:00,17.0,11.3,30.21,NNE,13,5.0,5.0,78,0.00,,,0.00,Wunderground v.1.15,2013-01-01 10:12:00,
2013-01-01 04:17:00,16.7,11.0,30.21,NNW,333,5.0,5.0,78,0.00,,,0.00,Wunderground v.1.15,2013-01-01 10:17:00,
2013-01-01 04:23:00,16.4,10.7,30.22,NNW,333,5.0,6.0,78,0.00,,,0.00,Wunderground v.1.15,2013-01-01 10:23:00,
2013-01-01 04:29:00,16.1,10.4,30.21,North,355,5.0,5.0,78,0.00,,,0.00,Wunderground v.1.15,2013-01-01 10:29:00,
2013-01-01 04:35:00,15.9,10.5,30.21,NNW,338,5.0,5.0,79,0.00,,,0.00,Wunderground v.1.15,2013-01-01 10:35:00,
2013-01-01 04:42:00,15.6,10.2,30.21,North,355,5.0,5.0,79,0.00,,,0.00,Wunderground v.1.15,2013-01-01 10:42:00,
2013-01-01 04:47:00,15.4,10.3,30.22,NNW,348,4.0,4.0,80,0.00,,,0.00,Wunderground v.1.15,2013-01-01 10:47:00,
2013-01-01 04:54:00,15.3,10.2,30.22,North,360,4.0,5.0,80,0.00,,,0.00,Wunderground v.1.15,2013-01-01 10:54:00,
2013-01-01 04:59:00,15.2,10.4,30.22,NNW,330,4.0,5.0,81,0.00,,,0.00,Wunderground v.1.15,2013-01-01 10:59:00,
2013-01-01 05:05:00,15.2,10.4,30.22,NNW,344,4.0,5.0,81,0.00,,,0.00,Wunderground v.1.15,2013-01-01 11:05:00,
2013-01-01 05:12:00,15.2,10.4,30.23,NNW,334,3.0,5.0,81,0.00,,,0.00,Wunderground v.1.15,2013-01-01 11:12:00,
2013-01-01 05:17:00,15.4,10.6,30.24,NNW,341,3.0,4.0,81,0.00,,,0.00,Wunderground v.1.15,2013-01-01 11:17:00,
2013-01-01 05:23:00,15.5,10.4,30.23,North,355,4.0,4.0,80,0.00,,,0.00,Wunderground v.1.15,2013-01-01 11:23:00,
2013-01-01 05:29:00,15.5,10.4,30.24,NNW,342,4.0,5.0,80,0.00,,,0.00,Wunderground v.1.15,2013-01-01 11:29:00,
2013-01-01 05:35:00,15.5,10.4,30.24,NNW,337,4.0,7.0,80,0.00,,,0.00,Wunderground v.1.15,2013-01-01 11:35:00,
2013-01-01 05:40:00,15.5,10.4,30.24,NNW,340,3.0,4.0,80,0.00,,,0.00,Wunderground v.1.15,2013-01-01 11:40:00,
2013-01-01 05:46:00,15.3,10.5,30.23,North,355,3.0,5.0,81,0.00,,,0.00,Wunderground v.1.15,2013-01-01 11:46:00,
2013-01-01 05:53:00,15.1,10.3,30.24,NNW,345,4.0,5.0,81,0.00,,,0.00,Wunderground v.1.15,2013-01-01 11:53:00,
2013-01-01 05:58:00,15.0,10.2,30.24,North,360,3.0,3.0,81,0.00,,,0.00,Wunderground v.1.15,2013-01-01 11:58:00,
2013-01-01 06:04:00,14.8,10.0,30.23,NNW,344,3.0,3.0,81,0.00,,,0.00,Wunderground v.1.15,2013-01-01 12:04:00,
2013-01-01 06:10:00,14.7,9.9,30.24,NNE,17,3.0,5.0,81,0.00,,,0.00,Wunderground v.1.15,2013-01-01 12:10:00,
2013-01-01 06:16:00,14.5,9.7,30.24,NNE,17,3.0,5.0,81,0.00,,,0.00,Wunderground v.1.15,2013-01-01 12:16:00,
2013-01-01 06:23:00,14.4,9.6,30.25,NNW,344,4.0,5.0,81,0.00,,,0.00,Wunderground v.1.15,2013-01-01 12:23:00,
2013-01-01 06:28:00,14.3,9.3,30.25,NNW,342,5.0,5.0,80,0.00,,,0.00,Wunderground v.1.15,2013-01-01 12:28:00,
2013-01-01 06:34:00,14.2,9.2,30.26,North,5,5.0,7.0,80,0.00,,,0.00,Wunderground v.1.15,2013-01-01 12:34:00,
2013-01-01 06:40:00,14.1,9.1,30.25,NNW,340,4.0,4.0,80,0.00,,,0.00,Wunderground v.1.15,2013-01-01 12:40:00,
2013-01-01 06:46:00,13.9,9.1,30.25,NNW,348,3.0,5.0,81,0.00,,,0.00,Wunderground v.1.15,2013-01-01 12:46:00,
2013-01-01 06:52:00,13.5,8.8,30.25,NNW,342,4.0,5.0,81,0.00,,,0.00,Wunderground v.1.15,2013-01-01 12:52:00,
2013-01-01 06:58:00,13.3,8.6,30.27,NW,321,4.0,4.0,81,0.00,,,0.00,Wunderground v.1.15,2013-01-01 12:58:00,
2013-01-01 07:04:00,13.3,8.6,30.25,North,355,3.0,4.0,81,0.00,,,0.00,Wunderground v.1.15,2013-01-01 13:04:00,
2013-01-01 07:10:00,13.0,8.5,30.26,NNW,333,4.0,5.0,82,0.00,,,0.00,Wunderground v.1.15,2013-01-01 13:10:00,
2013-01-01 07:16:00,12.8,8.3,30.25,NNW,346,4.0,5.0,82,0.00,,,0.00,Wunderground v.1.15,2013-01-01 13:16:00,
2013-01-01 07:22:00,12.6,8.1,30.25,North,5,4.0,7.0,82,0.00,,,0.00,Wunderground v.1.15,2013-01-01 13:22:00,
2013-01-01 07:28:00,12.5,8.0,30.25,North,5,3.0,3.0,82,0.00,,,0.00,Wunderground v.1.15,2013-01-01 13:28:00,
2013-01-01 07:34:00,12.3,7.9,30.25,North,360,3.0,5.0,82,0.00,,,0.00,Wunderground v.1.15,2013-01-01 13:34:00,
2013-01-01 07:40:00,12.4,8.2,30.25,North,355,4.0,6.0,83,0.00,,,0.00,Wunderground v.1.15,2013-01-01 13:40:00,
2013-01-01 07:46:00,12.4,8.2,30.24,NNE,13,4.0,6.0,83,0.00,,,0.00,Wunderground v.1.15,2013-01-01 13:46:00,
2013-01-01 07:52:00,12.6,8.4,30.25,NNE,17,3.0,7.0,83,0.00,,,0.00,Wunderground v.1.15,2013-01-01 13:52:00,
2013-01-01 07:58:00,12.8,8.3,30.25,NNE,17,4.0,7.0,82,0.00,,,0.00,Wunderground v.1.15,2013-01-01 13:58:00,
2013-01-01 08:04:00,12.8,8.3,30.24,North,5,5.0,7.0,82,0.00,,,0.00,Wunderground v.1.15,2013-01-01 14:04:00,
2013-01-01 08:10:00,12.9,8.4,30.25,North,360,5.0,5.0,82,0.00,,,0.00,Wunderground v.1.15,2013-01-01 14:10:00,
2013-01-01 08:16:00,13.1,8.4,30.25,NNE,22,4.0,5.0,81,0.00,,,0.00,Wunderground v.1.15,2013-01-01 14:16:00,
2013-01-01 08:22:00,13.2,8.5,30.25,NNE,12,5.0,6.0,81,0.00,,,0.00,Wunderground v.1.15,2013-01-01 14:22:00,
2013-01-01 08:27:00,13.4,8.7,30.24,NNW,338,5.0,5.0,81,0.00,,,0.00,Wunderground v.1.15,2013-01-01 14:27:00,
2013-01-01 08:34:00,13.6,8.6,30.24,NNE,29,5.0,7.0,80,0.00,,,0.00,Wunderground v.1.15,2013-01-01 14:34:00,
2013-01-01 08:39:00,14.1,9.1,30.23,North,5,6.0,6.0,80,0.00,,,0.00,Wunderground v.1.15,2013-01-01 14:39:00,
2013-01-01 08:46:00,14.3,9.0,30.23,NNW,340,6.0,10.0,79,0.00,,,0.00,Wunderground v.1.15,2013-01-01 14:46:00,
2013-01-01 08:52:00,14.6,9.0,30.23,North,5,7.0,8.0,78,0.00,,,0.00,Wunderground v.1.15,2013-01-01 14:52:00,
2013-01-01 08:57:00,15.0,9.1,30.24,NNW,348,6.0,9.0,77,0.00,,,0.00,Wunderground v.1.15,2013-01-01 14:57:00,
2013-01-01 09:04:00,15.5,9.0,30.24,North,355,6.0,9.0,75,0.00,,,0.00,Wunderground v.1.15,2013-01-01 15:04:00,
2013-01-01 09:09:00,15.7,8.9,30.25,North,355,7.0,7.0,74,0.00,,,0.00,Wunderground v.1.15,2013-01-01 15:09:00,
2013-01-01 09:16:00,15.9,9.1,30.26,NNE,17,5.0,7.0,74,0.00,,,0.00,Wunderground v.1.15,2013-01-01 15:16:00,
2013-01-01 09:22:00,16.3,9.5,30.26,NNE,14,4.0,6.0,74,0.00,,,0.00,Wunderground v.1.15,2013-01-01 15:22:00,
2013-01-01 09:27:00,16.6,9.4,30.28,NNE,18,3.0,4.0,73,0.00,,,0.00,Wunderground v.1.15,2013-01-01 15:27:00,
2013-01-01 09:33:00,17.0,9.5,30.28,NNE,18,3.0,4.0,72,0.00,,,0.00,Wunderground v.1.15,2013-01-01 15:33:00,
2013-01-01 09:39:00,17.2,9.4,30.28,NNE,18,3.0,3.0,71,0.00,,,0.00,Wunderground v.1.15,2013-01-01 15:39:00,
2013-01-01 09:45:00,17.5,9.7,30.28,NNE,18,4.0,6.0,71,0.00,,,0.00,Wunderground v.1.15,2013-01-01 15:45:00,
2013-01-01 09:52:00,17.6,9.5,30.29,NNW,327,4.0,5.0,70,0.00,,,0.00,Wunderground v.1.15,2013-01-01 15:52:00,
2013-01-01 09:57:00,17.7,9.9,30.29,NNE,19,5.0,7.0,71,0.00,,,0.00,Wunderground v.1.15,2013-01-01 15:57:00,
2013-01-01 10:03:00,17.8,9.7,30.29,North,350,5.0,7.0,70,0.00,,,0.00,Wunderground v.1.15,2013-01-01 16:03:00,
2013-01-01 10:09:00,18.2,9.7,30.29,North,360,4.0,5.0,69,0.00,,,0.00,Wunderground v.1.15,2013-01-01 16:09:00,
2013-01-01 10:15:00,18.5,10.0,30.29,North,350,4.0,5.0,69,0.00,,,0.00,Wunderground v.1.15,2013-01-01 16:15:00,
2013-01-01 10:22:00,18.6,9.8,30.30,WNW,299,5.0,5.0,68,0.00,,,0.00,Wunderground v.1.15,2013-01-01 16:22:00,
2013-01-01 10:27:00,18.8,10.3,30.30,NNW,345,3.0,5.0,69,0.00,,,0.00,Wunderground v.1.15,2013-01-01 16:27:00,
2013-01-01 10:33:00,19.4,10.6,30.30,West,277,3.0,5.0,68,0.00,,,0.00,Wunderground v.1.15,2013-01-01 16:33:00,
2013-01-01 10:40:00,19.6,10.1,30.30,NW,317,4.0,4.0,66,0.00,,,0.00,Wunderground v.1.15,2013-01-01 16:40:00,
2013-01-01 10:46:00,19.9,10.7,30.30,North,5,3.0,6.0,67,0.00,,,0.00,Wunderground v.1.15,2013-01-01 16:46:00,
2013-01-01 10:53:00,20.0,10.5,30.31,WNW,300,3.0,4.0,66,0.00,,,0.00,Wunderground v.1.15,2013-01-01 16:53:00,
2013-01-01 10:58:00,20.4,10.5,30.30,NNW,334,3.0,5.0,65,0.00,,,0.00,Wunderground v.1.15,2013-01-01 16:58:00,
2013-01-01 11:04:00,20.3,10.7,30.30,NNW,335,3.0,5.0,66,0.00,,,0.00,Wunderground v.1.15,2013-01-01 17:04:00,
2013-01-01 11:10:00,20.0,10.5,30.30,North,9,3.0,6.0,66,0.00,,,0.00,Wunderground v.1.15,2013-01-01 17:10:00,
2013-01-01 11:16:00,20.2,10.3,30.30,NNW,344,3.0,6.0,65,0.00,,,0.00,Wunderground v.1.15,2013-01-01 17:16:00,
2013-01-01 11:23:00,20.4,10.8,30.29,North,10,3.0,5.0,66,0.00,,,0.00,Wunderground v.1.15,2013-01-01 17:23:00,
2013-01-01 11:28:00,20.7,10.4,30.29,North,355,3.0,5.0,64,0.00,,,0.00,Wunderground v.1.15,2013-01-01 17:28:00,
2013-01-01 11:34:00,20.6,10.3,30.28,NNE,13,4.0,5.0,64,0.00,,,0.00,Wunderground v.1.15,2013-01-01 17:34:00,
2013-01-01 11:40:00,21.0,10.7,30.28,WSW,246,4.0,4.0,64,0.00,,,0.00,Wunderground v.1.15,2013-01-01 17:40:00,
2013-01-01 11:46:00,21.4,10.7,30.28,West,280,3.0,4.0,63,0.00,,,0.00,Wunderground v.1.15,2013-01-01 17:46:00,
2013-01-01 11:53:00,21.7,11.4,30.28,WSW,244,3.0,4.0,64,0.00,,,0.00,Wunderground v.1.15,2013-01-01 17:53:00,
2013-01-01 11:58:00,22.1,11.1,30.28,WSW,251,3.0,3.0,62,0.00,,,0.00,Wunderground v.1.15,2013-01-01 17:58:00,
2013-01-01 12:04:00,22.2,11.5,30.27,WSW,257,4.0,5.0,63,0.00,,,0.00,Wunderground v.1.15,2013-01-01 18:04:00,
2013-01-01 12:10:00,22.3,10.5,30.27,North,5,3.0,3.0,60,0.00,,,0.00,Wunderground v.1.15,2013-01-01 18:10:00,
2013-01-01 12:16:00,22.0,11.0,30.26,West,279,3.0,6.0,62,0.00,,,0.00,Wunderground v.1.15,2013-01-01 18:16:00,
2013-01-01 12:22:00,22.4,10.6,30.26,West,263,3.0,5.0,60,0.00,,,0.00,Wunderground v.1.15,2013-01-01 18:22:00,
2013-01-01 12:28:00,22.3,10.1,30.26,West,261,4.0,5.0,59,0.00,,,0.00,Wunderground v.1.15,2013-01-01 18:28:00,
2013-01-01 12:34:00,22.6,10.8,30.25,NNE,15,4.0,5.0,60,0.00,,,0.00,Wunderground v.1.15,2013-01-01 18:34:00,
2013-01-01 12:40:00,22.9,11.1,30.25,West,264,4.0,5.0,60,0.00,,,0.00,Wunderground v.1.15,2013-01-01 18:40:00,
2013-01-01 12:46:00,22.5,10.3,30.25,North,360,5.0,5.0,59,0.00,,,0.00,Wunderground v.1.15,2013-01-01 18:46:00,
2013-01-01 12:52:00,22.7,10.9,30.24,West,265,4.0,5.0,60,0.00,,,0.00,Wunderground v.1.15,2013-01-01 18:52:00,
2013-01-01 12:58:00,23.2,11.0,30.24,WNW,301,4.0,4.0,59,0.00,,,0.00,Wunderground v.1.15,2013-01-01 18:58:00,
2013-01-01 13:04:00,23.2,11.0,30.24,West,277,4.0,7.0,59,0.00,,,0.00,Wunderground v.1.15,2013-01-01 19:04:00,
2013-01-01 13:10:00,23.0,9.6,30.24,North,5,4.0,7.0,56,0.00,,,0.00,Wunderground v.1.15,2013-01-01 19:10:00,
2013-01-01 13:16:00,23.3,10.7,30.24,WNW,288,4.0,7.0,58,0.00,,,0.00,Wunderground v.1.15,2013-01-01 19:16:00,
2013-01-01 13:22:00,23.1,10.1,30.23,NNW,343,4.0,6.0,57,0.00,,,0.00,Wunderground v.1.15,2013-01-01 19:22:00,
2013-01-01 13:28:00,23.2,10.6,30.23,WNW,284,5.0,5.0,58,0.00,,,0.00,Wunderground v.1.15,2013-01-01 19:28:00,
2013-01-01 13:33:00,23.7,11.1,30.23,WNW,286,4.0,7.0,58,0.00,,,0.00,Wunderground v.1.15,2013-01-01 19:33:00,
2013-01-01 13:40:00,23.8,10.8,30.23,West,265,4.0,7.0,57,0.00,,,0.00,Wunderground v.1.15,2013-01-01 19:40:00,
2013-01-01 13:46:00,24.1,10.6,30.23,West,259,4.0,9.0,56,0.00,,,0.00,Wunderground v.1.15,2013-01-01 19:46:00,
2013-01-01 13:52:00,23.7,10.3,30.23,North,355,5.0,6.0,56,0.00,,,0.00,Wunderground v.1.15,2013-01-01 19:52:00,
2013-01-01 13:58:00,24.0,10.6,30.22,NNW,348,5.0,6.0,56,0.00,,,0.00,Wunderground v.1.15,2013-01-01 19:58:00,
2013-01-01 14:03:00,23.6,10.2,30.23,NNE,14,5.0,8.0,56,0.00,,,0.00,Wunderground v.1.15,2013-01-01 20:03:00,
2013-01-01 14:10:00,23.5,10.5,30.22,North,360,5.0,7.0,57,0.00,,,0.00,Wunderground v.1.15,2013-01-01 20:10:00,
2013-01-01 14:15:00,23.6,10.2,30.22,West,279,5.0,7.0,56,0.00,,,0.00,Wunderground v.1.15,2013-01-01 20:15:00,
2013-01-01 14:22:00,23.8,9.6,30.22,NNW,344,5.0,6.0,54,0.00,,,0.00,Wunderground v.1.15,2013-01-01 20:22:00,
2013-01-01 14:28:00,23.9,10.5,30.22,WNW,283,5.0,5.0,56,0.00,,,0.00,Wunderground v.1.15,2013-01-01 20:28:00,
2013-01-01 14:33:00,24.1,10.2,30.22,North,355,4.0,7.0,55,0.00,,,0.00,Wunderground v.1.15,2013-01-01 20:33:00,
2013-01-01 14:39:00,23.8,9.1,30.22,NNW,327,5.0,10.0,53,0.00,,,0.00,Wunderground v.1.15,2013-01-01 20:39:00,
2013-01-01 14:45:00,23.6,8.9,30.22,NNW,340,5.0,10.0,53,0.00,,,0.00,Wunderground v.1.15,2013-01-01 20:45:00,
2013-01-01 14:52:00,24.0,10.2,30.22,WSW,248,4.0,4.0,55,0.00,,,0.00,Wunderground v.1.15,2013-01-01 20:52:00,
2013-01-01 14:57:00,24.0,10.6,30.22,WSW,250,4.0,7.0,56,0.00,,,0.00,Wunderground v.1.15,2013-01-01 20:57:00,
2013-01-01 15:03:00,24.1,10.2,30.22,West,278,4.0,7.0,55,0.00,,,0.00,Wunderground v.1.15,2013-01-01 21:03:00,
2013-01-01 15:09:00,24.3,10.8,30.22,West,277,4.0,5.0,56,0.00,,,0.00,Wunderground v.1.15,2013-01-01 21:09:00,
2013-01-01 15:15:00,24.3,10.4,30.23,WSW,249,3.0,7.0,55,0.00,,,0.00,Wunderground v.1.15,2013-01-01 21:15:00,
2013-01-01 15:22:00,23.7,10.3,30.23,West,262,4.0,5.0,56,0.00,,,0.00,Wunderground v.1.15,2013-01-01 21:22:00,
2013-01-01 15:27:00,23.4,10.4,30.23,West,261,4.0,4.0,57,0.00,,,0.00,Wunderground v.1.15,2013-01-01 21:27:00,
2013-01-01 15:33:00,23.1,10.5,30.23,North,5,4.0,5.0,58,0.00,,,0.00,Wunderground v.1.15,2013-01-01 21:33:00,
2013-01-01 15:38:00,23.0,10.4,30.24,WSW,254,4.0,4.0,58,0.00,,,0.00,Wunderground v.1.15,2013-01-01 21:38:00,
2013-01-01 15:44:00,22.7,10.5,30.24,WSW,257,4.0,6.0,59,0.00,,,0.00,Wunderground v.1.15,2013-01-01 21:44:00,
2013-01-01 15:50:00,22.5,10.7,30.24,West,267,4.0,5.0,60,0.00,,,0.00,Wunderground v.1.15,2013-01-01 21:50:00,
2013-01-01 15:56:00,22.1,10.3,30.23,WSW,258,4.0,5.0,60,0.00,,,0.00,Wunderground v.1.15,2013-01-01 21:56:00,
2013-01-01 16:02:00,21.9,10.5,30.24,WSW,256,4.0,7.0,61,0.00,,,0.00,Wunderground v.1.15,2013-01-01 22:02:00,
2013-01-01 16:08:00,21.7,10.3,30.24,West,275,3.0,5.0,61,0.00,,,0.00,Wunderground v.1.15,2013-01-01 22:08:00,
2013-01-01 16:14:00,21.4,10.4,30.24,WSW,243,3.0,6.0,62,0.00,,,0.00,Wunderground v.1.15,2013-01-01 22:14:00,
2013-01-01 16:20:00,21.1,10.1,30.23,West,271,4.0,5.0,62,0.00,,,0.00,Wunderground v.1.15,2013-01-01 22:20:00,
2013-01-01 16:26:00,20.8,10.2,30.24,West,273,4.0,5.0,63,0.00,,,0.00,Wunderground v.1.15,2013-01-01 22:26:00,
2013-01-01 16:32:00,20.6,9.6,30.24,WNW,289,2.0,4.0,62,0.00,,,0.00,Wunderground v.1.15,2013-01-01 22:32:00,
2013-01-01 16:38:00,20.3,9.7,30.24,West,263,2.0,2.0,63,0.00,,,0.00,Wunderground v.1.15,2013-01-01 22:38:00,
2013-01-01 16:44:00,20.0,9.8,30.24,West,262,2.0,2.0,64,0.00,,,0.00,Wunderground v.1.15,2013-01-01 22:44:00,
2013-01-01 16:50:00,19.8,9.9,30.24,West,262,2.0,4.0,65,0.00,,,0.00,Wunderground v.1.15,2013-01-01 22:50:00,
2013-01-01 16:56:00,19.5,10.3,30.25,West,262,2.0,5.0,67,0.00,,,0.00,Wunderground v.1.15,2013-01-01 22:56:00,
2013-01-01 17:02:00,19.2,10.4,30.25,West,263,2.0,4.0,68,0.00,,,0.00,Wunderground v.1.15,2013-01-01 23:02:00,
2013-01-01 17:08:00,19.0,10.5,30.25,West,262,2.0,2.0,69,0.00,,,0.00,Wunderground v.1.15,2013-01-01 23:08:00,
2013-01-01 17:14:00,18.7,10.2,30.25,West,262,2.0,3.0,69,0.00,,,0.00,Wunderground v.1.15,2013-01-01 23:14:00,
2013-01-01 17:20:00,18.4,10.2,30.25,West,262,2.0,3.0,70,0.00,,,0.00,Wunderground v.1.15,2013-01-01 23:20:00,
2013-01-01 17:26:00,18.1,10.3,30.26,West,259,2.0,5.0,71,0.00,,,0.00,Wunderground v.1.15,2013-01-01 23:26:00,
2013-01-01 17:32:00,17.8,10.0,30.26,West,263,3.0,6.0,71,0.00,,,0.00,Wunderground v.1.15,2013-01-01 23:32:00,
2013-01-01 17:38:00,17.6,9.8,30.26,West,264,3.0,3.0,71,0.00,,,0.00,Wunderground v.1.15,2013-01-01 23:38:00,
2013-01-01 17:44:00,17.4,9.6,30.26,West,259,3.0,3.0,71,0.00,,,0.00,Wunderground v.1.15,2013-01-01 23:44:00,
2013-01-01 17:50:00,17.3,9.5,30.26,West,259,2.0,2.0,71,0.00,,,0.00,Wunderground v.1.15,2013-01-01 23:50:00,
2013-01-01 17:56:00,17.1,9.6,30.27,West,259,2.0,4.0,72,0.00,,,0.00,Wunderground v.1.15,2013-01-01 23:56:00,
2013-01-01 18:02:00,16.9,9.4,30.26,West,259,2.0,2.0,72,0.00,,,0.00,Wunderground v.1.15,2013-01-02 00:02:00,
2013-01-01 18:08:00,16.8,9.3,30.26,West,259,2.0,4.0,72,0.00,,,0.00,Wunderground v.1.15,2013-01-02 00:08:00,
2013-01-01 18:14:00,16.6,9.1,30.26,West,259,2.0,4.0,72,0.00,,,0.00,Wunderground v.1.15,2013-01-02 00:14:00,
2013-01-01 18:20:00,16.4,9.3,30.27,West,259,2.0,2.0,73,0.00,,,0.00,Wunderground v.1.15,2013-01-02 00:20:00,
2013-01-01 18:26:00,16.3,9.5,30.27,West,259,2.0,2.0,74,0.00,,,0.00,Wunderground v.1.15,2013-01-02 00:26:00,
2013-01-01 18:32:00,16.1,9.3,30.27,West,259,2.0,2.0,74,0.00,,,0.00,Wunderground v.1.15,2013-01-02 00:32:00,
2013-01-01 18:38:00,15.9,9.4,30.26,West,259,2.0,2.0,75,0.00,,,0.00,Wunderground v.1.15,2013-01-02 00:38:00,
2013-01-01 18:44:00,15.8,9.3,30.26,West,259,3.0,3.0,75,0.00,,,0.00,Wunderground v.1.15,2013-01-02 00:44:00,
2013-01-01 18:50:00,15.6,9.1,30.27,West,281,2.0,4.0,75,0.00,,,0.00,Wunderground v.1.15,2013-01-02 00:50:00,
2013-01-01 18:56:00,15.5,9.0,30.27,West,265,2.0,4.0,75,0.00,,,0.00,Wunderground v.1.15,2013-01-02 00:56:00,
2013-01-01 19:02:00,15.4,8.9,30.27,West,266,3.0,3.0,75,0.00,,,0.00,Wunderground v.1.15,2013-01-02 01:02:00,
2013-01-01 19:07:00,15.3,8.8,30.27,West,277,3.0,3.0,75,0.00,,,0.00,Wunderground v.1.15,2013-01-02 01:07:00,
2013-01-01 19:14:00,15.1,8.6,30.27,WSW,253,2.0,4.0,75,0.00,,,0.00,Wunderground v.1.15,2013-01-02 01:14:00,
2013-01-01 19:19:00,15.0,8.5,30.27,WSW,253,2.0,3.0,75,0.00,,,0.00,Wunderground v.1.15,2013-01-02 01:19:00,
2013-01-01 19:25:00,14.9,8.4,30.27,WSW,253,2.0,3.0,75,0.00,,,0.00,Wunderground v.1.15,2013-01-02 01:25:00,
2013-01-01 19:32:00,14.8,8.3,30.27,WSW,253,2.0,2.0,75,0.00,,,0.00,Wunderground v.1.15,2013-01-02 01:32:00,
2013-01-01 19:37:00,14.7,8.2,30.27,WSW,253,2.0,2.0,75,0.00,,,0.00,Wunderground v.1.15,2013-01-02 01:37:00,
2013-01-01 19:43:00,14.5,8.3,30.26,WSW,252,2.0,4.0,76,0.00,,,0.00,Wunderground v.1.15,2013-01-02 01:43:00,
2013-01-01 19:49:00,14.4,8.2,30.27,WSW,252,2.0,2.0,76,0.00,,,0.00,Wunderground v.1.15,2013-01-02 01:49:00,
2013-01-01 19:55:00,14.2,8.0,30.27,WSW,253,2.0,4.0,76,0.00,,,0.00,Wunderground v.1.15,2013-01-02 01:55:00,
2013-01-01 20:02:00,14.0,8.1,30.27,WSW,253,1.0,2.0,77,0.00,,,0.00,Wunderground v.1.15,2013-01-02 02:02:00,
2013-01-01 20:07:00,13.9,8.0,30.27,WSW,253,1.0,2.0,77,0.00,,,0.00,Wunderground v.1.15,2013-01-02 02:07:00,
2013-01-01 20:13:00,13.7,7.8,30.26,WSW,253,1.0,2.0,77,0.00,,,0.00,Wunderground v.1.15,2013-01-02 02:13:00,
2013-01-01 20:19:00,13.6,8.0,30.26,WSW,252,1.0,4.0,78,0.00,,,0.00,Wunderground v.1.15,2013-01-02 02:19:00,
2013-01-01 20:25:00,13.5,7.9,30.26,WSW,253,2.0,4.0,78,0.00,,,0.00,Wunderground v.1.15,2013-01-02 02:25:00,
2013-01-01 20:32:00,13.3,7.7,30.26,WSW,253,2.0,5.0,78,0.00,,,0.00,Wunderground v.1.15,2013-01-02 02:32:00,
2013-01-01 20:38:00,13.2,7.6,30.26,WSW,253,1.0,1.0,78,0.00,,,0.00,Wunderground v.1.15,2013-01-02 02:38:00,
2013-01-01 20:44:00,13.1,7.5,30.26,WSW,253,2.0,5.0,78,0.00,,,0.00,Wunderground v.1.15,2013-01-02 02:44:00,
2013-01-01 20:50:00,12.9,7.3,30.26,WSW,253,2.0,2.0,78,0.00,,,0.00,Wunderground v.1.15,2013-01-02 02:50:00,
2013-01-01 20:56:00,12.8,7.2,30.26,WSW,253,2.0,2.0,78,0.00,,,0.00,Wunderground v.1.15,2013-01-02 02:56:00,
2013-01-01 21:02:00,12.8,7.2,30.26,WSW,253,2.0,4.0,78,0.00,,,0.00,Wunderground v.1.15,2013-01-02 03:02:00,
2013-01-01 21:08:00,12.7,7.4,30.26,WSW,253,2.0,2.0,79,0.00,,,0.00,Wunderground v.1.15,2013-01-02 03:08:00,
2013-01-01 21:14:00,12.7,7.4,30.26,WSW,253,2.0,2.0,79,0.00,,,0.00,Wunderground v.1.15,2013-01-02 03:14:00,
2013-01-01 21:20:00,12.6,7.0,30.25,WSW,253,1.0,2.0,78,0.00,,,0.00,Wunderground v.1.15,2013-01-02 03:20:00,
2013-01-01 21:26:00,12.5,6.9,30.25,WSW,253,1.0,4.0,78,0.00,,,0.00,Wunderground v.1.15,2013-01-02 03:26:00,
2013-01-01 21:32:00,12.5,6.9,30.25,WSW,253,1.0,1.0,78,0.00,,,0.00,Wunderground v.1.15,2013-01-02 03:32:00,
2013-01-01 21:38:00,12.4,6.8,30.26,WSW,253,1.0,1.0,78,0.00,,,0.00,Wunderground v.1.15,2013-01-02 03:38:00,
2013-01-01 21:44:00,12.3,6.7,30.26,WSW,253,1.0,2.0,78,0.00,,,0.00,Wunderground v.1.15,2013-01-02 03:44:00,
2013-01-01 21:50:00,12.3,6.7,30.26,WSW,253,1.0,2.0,78,0.00,,,0.00,Wunderground v.1.15,2013-01-02 03:50:00,
2013-01-01 21:56:00,12.3,6.7,30.25,WSW,253,1.0,2.0,78,0.00,,,0.00,Wunderground v.1.15,2013-01-02 03:56:00,
2013-01-01 22:02:00,12.2,6.9,30.26,WSW,252,1.0,2.0,79,0.00,,,0.00,Wunderground v.1.15,2013-01-02 04:02:00,
2013-01-01 22:08:00,12.2,6.9,30.26,WSW,253,1.0,1.0,79,0.00,,,0.00,Wunderground v.1.15,2013-01-02 04:08:00,
2013-01-01 22:14:00,12.1,6.8,30.26,WSW,253,1.0,2.0,79,0.00,,,0.00,Wunderground v.1.15,2013-01-02 04:14:00,
2013-01-01 22:20:00,11.9,6.6,30.26,WSW,253,1.0,1.0,79,0.00,,,0.00,Wunderground v.1.15,2013-01-02 04:20:00,
2013-01-01 22:26:00,11.7,6.4,30.26,WSW,253,0.0,1.0,79,0.00,,,0.00,Wunderground v.1.15,2013-01-02 04:26:00,
2013-01-01 22:32:00,11.5,6.2,30.26,WSW,253,1.0,1.0,79,0.00,,,0.00,Wunderground v.1.15,2013-01-02 04:32:00,
2013-01-01 22:38:00,11.6,6.6,30.26,WSW,253,1.0,4.0,80,0.00,,,0.00,Wunderground v.1.15,2013-01-02 04:38:00,
2013-01-01 22:44:00,11.6,6.3,30.26,WSW,253,1.0,4.0,79,0.00,,,0.00,Wunderground v.1.15,2013-01-02 04:44:00,
2013-01-01 22:50:00,11.5,6.5,30.27,WSW,252,1.0,2.0,80,0.00,,,0.00,Wunderground v.1.15,2013-01-02 04:50:00,
2013-01-01 22:56:00,11.5,6.5,30.27,WSW,253,1.0,4.0,80,0.00,,,0.00,Wunderground v.1.15,2013-01-02 04:56:00,
2013-01-01 23:00:00,11.6,6.6,30.27,WSW,253,2.0,2.0,80,0.00,,,0.00,Wunderground v.1.15,2013-01-02 05:00:00,
2013-01-01 23:02:00,11.6,6.6,30.27,WSW,253,2.0,2.0,80,0.00,,,0.00,Wunderground v.1.15,2013-01-02 05:02:00,
2013-01-01 23:08:00,11.6,6.6,30.27,WSW,253,2.0,2.0,80,0.00,,,0.00,Wunderground v.1.15,2013-01-02 05:08:00,
2013-01-01 23:14:00,11.7,6.7,30.26,WSW,253,2.0,4.0,80,0.00,,,0.00,Wunderground v.1.15,2013-01-02 05:14:00,
2013-01-01 23:18:00,11.6,6.6,30.27,WSW,253,1.0,4.0,80,0.00,,,0.00,Wunderground v.1.15,2013-01-02 05:18:00,
2013-01-01 23:24:00,11.7,6.4,30.27,WSW,253,2.0,4.0,79,0.00,,,0.00,Wunderground v.1.15,2013-01-02 05:24:00,
2013-01-01 23:30:00,11.6,6.3,30.27,WSW,253,2.0,2.0,79,0.00,,,0.00,Wunderground v.1.15,2013-01-02 05:30:00,
2013-01-01 23:36:00,11.6,6.3,30.27,WSW,252,2.0,2.0,79,0.00,,,0.00,Wunderground v.1.15,2013-01-02 05:36:00,
2013-01-01 23:42:00,11.5,6.2,30.27,WSW,253,1.0,2.0,79,0.00,,,0.00,Wunderground v.1.15,2013-01-02 05:42:00,
2013-01-01 23:48:00,11.4,6.2,30.26,WSW,252,1.0,1.0,79,0.00,,,0.00,Wunderground v.1.15,2013-01-02 05:48:00,
2013-01-01 23:53:00,11.4,6.2,30.26,WSW,252,1.0,2.0,79,0.00,,,0.00,Wunderground v.1.15,2013-01-02 05:53:00,